createdAt,value
2023-05-21T00:00:10.927Z,8.03
2023-05-21T00:02:38.151Z,7.97
2023-05-21T00:05:05.594Z,8.30
2023-05-21T00:07:33.178Z,7.77
2023-05-21T00:10:00.351Z,7.80
2023-05-21T00:12:27.171Z,8.10
2023-05-21T00:14:53.906Z,7.37
2023-05-21T00:17:20.622Z,7.57
2023-05-21T00:19:47.734Z,8.30
2023-05-21T00:22:14.484Z,9.00
2023-05-21T00:24:41.586Z,8.13
2023-05-21T00:27:08.497Z,8.53
2023-05-21T00:29:35.491Z,8.47
2023-05-21T00:32:03.178Z,8.63
2023-05-21T00:34:30.282Z,8.37
2023-05-21T00:36:57.749Z,9.10
2023-05-21T00:39:24.717Z,8.53
2023-05-21T00:41:51.707Z,8.67
2023-05-21T00:44:19.757Z,8.70
2023-05-21T00:46:48.968Z,8.20
2023-05-21T00:49:16.350Z,9.43
2023-05-21T00:51:45.334Z,8.60
2023-05-21T00:54:12.769Z,8.60
2023-05-21T00:56:39.904Z,8.40
2023-05-21T00:59:15.822Z,8.00
2023-05-21T01:01:46.365Z,8.57
2023-05-21T01:04:13.776Z,8.17
2023-05-21T01:06:40.667Z,8.53
2023-05-21T01:09:07.698Z,7.70
2023-05-21T01:11:44.565Z,9.23
2023-05-21T01:14:13.438Z,8.33
2023-05-21T01:16:44.043Z,8.63
2023-05-21T01:19:17.845Z,7.80
2023-05-21T01:21:56.794Z,7.83
2023-05-21T01:24:23.822Z,7.93
2023-05-21T01:26:50.765Z,7.53
2023-05-21T01:29:17.965Z,8.30
2023-05-21T01:32:34.371Z,8.47
2023-05-21T01:35:04.866Z,7.07
2023-05-21T01:37:44.503Z,8.10
2023-05-21T01:40:30.920Z,7.80
2023-05-21T01:42:58.795Z,7.40
2023-05-21T01:45:27.828Z,8.20
2023-05-21T01:47:56.163Z,8.37
2023-05-21T01:50:25.034Z,7.90
2023-05-21T01:52:53.683Z,7.90
2023-05-21T01:55:24.925Z,6.90
2023-05-21T01:57:56.042Z,8.43
2023-05-21T02:00:24.756Z,8.17
2023-05-21T02:02:52.511Z,8.33
2023-05-21T02:05:19.631Z,7.63
2023-05-21T02:07:47.571Z,8.30
2023-05-21T02:10:14.554Z,8.50
2023-05-21T02:12:41.467Z,8.17
2023-05-21T02:15:08.653Z,8.63
2023-05-21T02:17:36.155Z,8.40
2023-05-21T02:20:11.710Z,8.77
2023-05-21T02:22:39.965Z,8.20
2023-05-21T02:25:08.913Z,8.90
2023-05-21T02:27:37.733Z,8.97
2023-05-21T02:30:07.852Z,8.33
2023-05-21T02:32:35.494Z,8.50
2023-05-21T02:35:04.287Z,8.57
2023-05-21T02:37:35.102Z,8.63
2023-05-21T02:42:30.362Z,8.87
2023-05-21T02:44:57.328Z,9.60
2023-05-21T02:47:25.489Z,9.60
2023-05-21T02:49:53.445Z,9.53
2023-05-21T02:52:24.196Z,7.70
2023-05-21T02:54:52.234Z,8.90
2023-05-21T02:57:19.470Z,8.97
2023-05-21T02:59:46.416Z,8.80
2023-05-21T03:02:13.534Z,8.80
2023-05-21T03:04:46.473Z,9.10
2023-05-21T03:07:20.006Z,8.80
2023-05-21T03:09:47.625Z,8.43
2023-05-21T03:12:14.619Z,9.63
2023-05-21T03:14:46.459Z,9.07
2023-05-21T03:17:17.235Z,8.60
2023-05-21T03:19:44.717Z,8.57
2023-05-21T03:22:11.700Z,8.97
2023-05-21T03:24:42.223Z,10.43
2023-05-21T03:27:09.120Z,8.50
2023-05-21T03:29:36.299Z,8.80
2023-05-21T03:32:03.812Z,8.70
2023-05-21T03:34:31.309Z,8.70
2023-05-21T03:36:58.278Z,9.00
2023-05-21T03:39:25.368Z,8.87
2023-05-21T03:41:52.257Z,8.33
2023-05-21T03:44:19.138Z,7.90
2023-05-21T03:46:46.105Z,9.30
2023-05-21T03:49:14.421Z,8.97
2023-05-21T03:51:41.337Z,8.67
2023-05-21T03:54:08.407Z,8.50
2023-05-21T03:56:35.408Z,8.23
2023-05-21T03:59:02.532Z,9.13
2023-05-21T04:01:29.487Z,9.83
2023-05-21T04:03:57.293Z,9.50
2023-05-21T04:06:24.405Z,8.60
2023-05-21T04:08:52.193Z,8.37
2023-05-21T04:11:20.913Z,8.30
2023-05-21T04:13:48.245Z,8.30
2023-05-21T04:16:19.095Z,9.00
2023-05-21T04:18:47.009Z,9.10
2023-05-21T04:21:14.132Z,9.20
2023-05-21T04:23:41.043Z,9.30
2023-05-21T04:26:08.620Z,8.90
2023-05-21T04:28:35.638Z,8.90
2023-05-21T04:31:02.764Z,9.73
2023-05-21T04:33:30.442Z,8.00
2023-05-21T04:35:58.145Z,8.57
2023-05-21T04:38:26.076Z,9.13
2023-05-21T04:40:53.647Z,8.30
2023-05-21T04:43:26.285Z,9.40
2023-05-21T04:45:55.230Z,9.60
2023-05-21T04:48:27.154Z,8.27
2023-05-21T04:50:54.960Z,8.97
2023-05-21T04:53:23.308Z,8.53
2023-05-21T04:55:50.430Z,8.97
2023-05-21T04:58:20.167Z,9.57
2023-05-21T05:00:47.590Z,8.87
2023-05-21T05:03:14.852Z,8.40
2023-05-21T05:05:42.147Z,8.57
2023-05-21T05:08:09.243Z,9.10
2023-05-21T05:10:36.418Z,9.30
2023-05-21T05:13:03.595Z,9.20
2023-05-21T05:15:30.604Z,8.70
2023-05-21T05:17:57.628Z,9.53
2023-05-21T05:20:24.658Z,8.60
2023-05-21T05:22:51.601Z,8.83
2023-05-21T05:25:18.565Z,9.07
2023-05-21T05:27:45.641Z,9.60
2023-05-21T05:30:12.720Z,9.23
2023-05-21T05:32:39.633Z,9.13
2023-05-21T05:35:07.373Z,8.80
2023-05-21T05:37:34.413Z,8.03
2023-05-21T05:40:01.517Z,9.60
2023-05-21T05:42:28.680Z,9.70
2023-05-21T05:44:56.188Z,8.80
2023-05-21T05:47:23.288Z,9.63
2023-05-21T05:49:50.350Z,9.10
2023-05-21T05:52:17.536Z,9.00
2023-05-21T05:54:44.867Z,9.47
2023-05-21T05:57:12.947Z,9.10
2023-05-21T05:59:39.889Z,9.27
2023-05-21T06:02:07.490Z,8.67
2023-05-21T06:04:34.467Z,9.57
2023-05-21T06:07:01.878Z,9.17
2023-05-21T06:09:29.618Z,8.37
2023-05-21T06:11:56.609Z,8.63
2023-05-21T06:14:23.494Z,8.83
2023-05-21T06:16:50.420Z,9.10
2023-05-21T06:19:17.572Z,9.50
2023-05-21T06:21:45.161Z,8.87
2023-05-21T06:24:12.980Z,8.83
2023-05-21T06:26:40.570Z,9.70
2023-05-21T06:29:07.761Z,8.97
2023-05-21T06:31:34.761Z,9.10
2023-05-21T06:34:02.287Z,9.00
2023-05-21T06:36:30.448Z,9.23
2023-05-21T06:38:57.489Z,9.27
2023-05-21T06:41:24.799Z,9.30
2023-05-21T06:43:51.812Z,8.73
2023-05-21T06:46:18.918Z,9.00
2023-05-21T06:48:48.564Z,8.60
2023-05-21T06:51:15.601Z,9.13
2023-05-21T06:53:42.573Z,8.87
2023-05-21T06:56:09.507Z,8.50
2023-05-21T06:58:36.437Z,8.20
2023-05-21T07:01:04.603Z,9.53
2023-05-21T07:03:31.745Z,8.83
2023-05-21T07:05:59.116Z,9.40
2023-05-21T07:08:26.177Z,8.60
2023-05-21T07:10:53.338Z,9.43
2023-05-21T07:13:20.468Z,9.13
2023-05-21T07:15:47.424Z,9.20
2023-05-21T07:18:14.496Z,8.70
2023-05-21T07:20:42.299Z,8.73
2023-05-21T07:23:09.350Z,9.30
2023-05-21T07:25:36.715Z,9.47
2023-05-21T07:28:06.436Z,9.83
2023-05-21T07:30:34.202Z,8.90
2023-05-21T07:33:01.342Z,9.50
2023-05-21T07:35:29.167Z,8.57
2023-05-21T07:37:56.155Z,8.53
2023-05-21T07:40:23.117Z,8.60
2023-05-21T07:42:50.106Z,8.97
2023-05-21T07:45:17.608Z,8.70
2023-05-21T07:47:46.790Z,8.70
2023-05-21T07:50:14.793Z,8.73
2023-05-21T07:52:41.772Z,9.60
2023-05-21T07:55:10.170Z,8.67
2023-05-21T07:57:37.323Z,9.50
2023-05-21T08:00:08.153Z,8.97
2023-05-21T08:02:35.190Z,8.80
2023-05-21T08:05:02.677Z,9.30
2023-05-21T08:07:29.761Z,9.17
2023-05-21T08:09:57.082Z,9.40
2023-05-21T08:12:24.398Z,9.50
2023-05-21T08:14:51.572Z,8.70
2023-05-21T08:17:18.899Z,9.10
2023-05-21T08:19:45.941Z,9.90
2023-05-21T08:22:13.692Z,9.53
2023-05-21T08:24:41.412Z,8.83
2023-05-21T08:27:08.522Z,9.20
2023-05-21T08:29:35.861Z,8.93
2023-05-21T08:32:02.983Z,9.57
2023-05-21T08:34:30.054Z,9.20
2023-05-21T08:36:57.132Z,8.83
2023-05-21T08:39:24.303Z,8.80
2023-05-21T08:41:56.025Z,9.60
2023-05-21T08:44:28.548Z,9.27
2023-05-21T08:46:59.333Z,10.50
2023-05-21T08:49:30.411Z,10.63
2023-05-21T08:51:58.568Z,8.93
2023-05-21T08:54:25.567Z,9.70
2023-05-21T08:56:53.643Z,9.40
2023-05-21T08:59:21.956Z,9.40
2023-05-21T09:01:50.171Z,9.47
2023-05-21T09:04:21.373Z,10.13
2023-05-21T09:06:49.023Z,9.23
2023-05-21T09:09:28.240Z,9.40
2023-05-21T09:11:55.465Z,10.73
2023-05-21T09:14:24.199Z,10.20
2023-05-21T09:16:51.460Z,10.80
2023-05-21T09:19:22.400Z,10.10
2023-05-21T09:21:52.918Z,9.83
2023-05-21T09:24:25.176Z,10.70
2023-05-21T09:26:52.596Z,11.20
2023-05-21T09:29:20.152Z,10.80
2023-05-21T09:31:47.676Z,11.10
2023-05-21T09:34:15.045Z,10.67
2023-05-21T09:36:42.199Z,11.30
2023-05-21T09:39:11.423Z,10.93
2023-05-21T09:41:38.546Z,10.40
2023-05-21T09:44:05.821Z,10.90
2023-05-21T09:46:41.005Z,10.43
2023-05-21T09:49:22.484Z,11.10
2023-05-21T09:51:49.531Z,10.40
2023-05-21T09:54:16.599Z,11.30
2023-05-21T09:56:43.592Z,11.03
2023-05-21T09:59:10.540Z,11.27
2023-05-21T10:01:38.768Z,9.87
2023-05-21T10:04:09.247Z,11.00
2023-05-21T10:06:43.661Z,11.43
2023-05-21T10:09:11.713Z,11.53
2023-05-21T10:11:42.645Z,10.70
2023-05-21T10:14:19.497Z,11.87
2023-05-21T10:16:48.224Z,10.47
2023-05-21T10:19:17.033Z,10.23
2023-05-21T10:21:45.861Z,11.00
2023-05-21T10:24:13.815Z,12.00
2023-05-21T10:26:41.717Z,10.90
2023-05-21T10:29:10.121Z,10.83
2023-05-21T10:31:39.748Z,10.53
2023-05-21T10:34:07.280Z,11.40
2023-05-21T10:36:38.334Z,11.27
2023-05-21T10:39:08.459Z,11.50
2023-05-21T10:42:09.662Z,11.83
2023-05-21T10:45:04.946Z,10.50
2023-05-21T10:47:34.872Z,10.53
2023-05-21T10:50:07.807Z,11.03
2023-05-21T10:52:58.614Z,10.30
2023-05-21T10:55:28.769Z,10.40
2023-05-21T10:58:01.939Z,11.20
2023-05-21T11:00:31.608Z,11.80
2023-05-21T11:03:00.506Z,11.23
2023-05-21T11:05:49.592Z,12.20
2023-05-21T11:08:25.253Z,11.43
2023-05-21T11:11:00.289Z,11.80
2023-05-21T11:13:31.276Z,11.60
2023-05-21T11:16:07.938Z,10.63
2023-05-21T11:18:38.119Z,11.27
2023-05-21T11:21:16.001Z,11.67
2023-05-21T11:23:52.248Z,11.77
2023-05-21T11:26:22.533Z,11.80
2023-05-21T11:29:05.082Z,12.13
2023-05-21T11:31:39.901Z,11.50
2023-05-21T11:34:13.982Z,11.20
2023-05-21T11:36:45.253Z,12.50
2023-05-21T11:39:21.878Z,12.47
2023-05-21T11:42:02.428Z,11.03
2023-05-21T11:44:49.185Z,12.00
2023-05-21T11:47:20.422Z,11.93
2023-05-21T11:49:48.204Z,12.87
2023-05-21T11:52:15.665Z,11.73
2023-05-21T11:54:46.348Z,12.03
2023-05-21T11:57:17.801Z,11.67
2023-05-21T11:59:51.781Z,12.20
2023-05-21T12:02:21.228Z,12.17
2023-05-21T12:04:50.252Z,12.27
2023-05-21T12:07:19.870Z,13.00
2023-05-21T12:09:48.552Z,13.87
2023-05-21T12:12:19.890Z,12.57
2023-05-21T12:14:49.410Z,12.50
2023-05-21T12:17:21.774Z,12.93
2023-05-21T12:19:55.182Z,12.17
2023-05-21T12:22:24.714Z,12.00
2023-05-21T12:24:54.183Z,12.43
2023-05-21T12:27:22.637Z,12.30
2023-05-21T12:29:54.331Z,11.33
2023-05-21T12:32:22.422Z,12.57
2023-05-21T12:34:51.466Z,12.67
2023-05-21T12:37:32.659Z,12.60
2023-05-21T12:40:01.499Z,13.00
2023-05-21T12:42:31.019Z,12.20
2023-05-21T12:44:58.580Z,12.97
2023-05-21T12:47:27.012Z,12.87
2023-05-21T12:50:01.923Z,13.17
2023-05-21T12:52:31.749Z,13.53
2023-05-21T12:54:59.531Z,13.00
2023-05-21T12:57:37.236Z,12.70
2023-05-21T13:00:11.130Z,11.50
2023-05-21T13:02:42.860Z,11.70
2023-05-21T13:05:17.904Z,13.67
2023-05-21T13:07:47.180Z,12.73
2023-05-21T13:10:16.795Z,12.17
2023-05-21T13:12:44.714Z,12.93
2023-05-21T13:15:12.458Z,12.20
2023-05-21T13:17:39.669Z,13.23
2023-05-21T13:20:16.569Z,12.13
2023-05-21T13:22:48.111Z,12.60
2023-05-21T13:25:22.373Z,12.20
2023-05-21T13:27:50.860Z,12.30
2023-05-21T13:30:18.677Z,12.33
2023-05-21T13:32:46.097Z,13.23
2023-05-21T13:35:13.493Z,11.40
2023-05-21T13:37:41.093Z,12.00
2023-05-21T13:40:19.341Z,10.57
2023-05-21T13:42:47.820Z,11.43
2023-05-21T13:45:16.803Z,10.77
2023-05-21T13:47:44.998Z,11.60
2023-05-21T13:50:13.043Z,12.20
2023-05-21T13:52:40.517Z,11.33
2023-05-21T13:55:07.834Z,11.80
2023-05-21T13:57:35.400Z,12.20
2023-05-21T14:00:04.917Z,11.60
2023-05-21T14:02:32.002Z,10.73
2023-05-21T14:04:59.168Z,11.70
2023-05-21T14:07:26.971Z,10.50
2023-05-21T14:09:54.191Z,12.00
2023-05-21T14:12:22.075Z,10.40
2023-05-21T14:14:50.002Z,11.30
2023-05-21T14:17:16.918Z,11.47
2023-05-21T14:19:43.888Z,12.63
2023-05-21T14:22:10.846Z,11.20
2023-05-21T14:24:37.823Z,11.50
2023-05-21T14:27:04.871Z,11.30
2023-05-21T14:29:33.208Z,10.80
2023-05-21T14:32:00.575Z,11.07
2023-05-21T14:34:27.619Z,10.90
2023-05-21T14:36:54.631Z,11.40
2023-05-21T14:39:21.872Z,12.00
2023-05-21T14:41:48.911Z,12.60
2023-05-21T14:44:15.855Z,10.70
2023-05-21T14:46:42.936Z,12.93
2023-05-21T14:49:11.849Z,12.47
2023-05-21T14:51:38.778Z,12.03
2023-05-21T14:54:05.677Z,11.30
2023-05-21T14:56:32.629Z,10.90
2023-05-21T14:58:59.520Z,11.10
2023-05-21T15:01:26.473Z,11.50
2023-05-21T15:03:53.505Z,11.80
2023-05-21T15:06:20.845Z,11.80
2023-05-21T15:08:47.755Z,11.77
2023-05-21T15:11:14.681Z,11.90
2023-05-21T15:13:41.641Z,10.77
2023-05-21T15:16:08.762Z,11.83
2023-05-21T15:18:35.880Z,12.30
2023-05-21T15:21:02.876Z,12.50
2023-05-21T15:23:29.779Z,11.90
2023-05-21T15:25:57.067Z,11.20
2023-05-21T15:28:23.994Z,10.93
2023-05-21T15:30:51.000Z,11.50
2023-05-21T15:33:18.169Z,12.17
2023-05-21T15:35:45.440Z,11.10
2023-05-21T15:38:12.724Z,11.60
2023-05-21T15:40:42.265Z,11.07
2023-05-21T15:43:09.612Z,11.07
2023-05-21T15:45:37.310Z,11.93
2023-05-21T15:48:05.053Z,11.00
2023-05-21T15:50:32.031Z,11.20
2023-05-21T15:52:58.972Z,10.60
2023-05-21T15:55:26.092Z,11.17
2023-05-21T15:57:53.025Z,11.60
2023-05-21T16:00:19.987Z,10.50
2023-05-21T16:02:47.020Z,11.60
2023-05-21T16:05:13.920Z,11.40
2023-05-21T16:07:41.792Z,11.60
2023-05-21T16:10:10.564Z,11.40
2023-05-21T16:12:38.199Z,11.83
2023-05-21T16:15:06.352Z,12.70
2023-05-21T16:17:33.454Z,11.20
2023-05-21T16:20:00.907Z,19.93
2023-05-21T16:22:28.017Z,13.90
2023-05-21T16:24:55.828Z,13.77
2023-05-21T16:27:22.773Z,11.90
2023-05-21T16:29:49.794Z,12.10
2023-05-21T16:32:16.788Z,12.90
2023-05-21T16:34:43.766Z,11.50
2023-05-21T16:37:11.201Z,13.37
2023-05-21T16:39:38.530Z,13.97
2023-05-21T16:42:06.799Z,11.17
2023-05-21T16:44:33.772Z,22.53
2023-05-21T16:47:02.207Z,13.73
2023-05-21T16:49:29.184Z,15.10
2023-05-21T16:51:56.295Z,12.20
2023-05-21T16:54:23.259Z,13.80
2023-05-21T16:56:50.400Z,12.07
2023-05-21T16:59:17.382Z,12.30
2023-05-21T17:01:44.483Z,11.47
2023-05-21T17:04:11.782Z,13.00
2023-05-21T17:06:39.110Z,12.07
2023-05-21T17:09:06.357Z,11.40
2023-05-21T17:11:35.107Z,12.67
2023-05-21T17:14:02.137Z,12.33
2023-05-21T17:16:29.221Z,12.73
2023-05-21T17:18:56.211Z,12.03
2023-05-21T17:21:23.471Z,13.20
2023-05-21T17:23:50.379Z,12.70
2023-05-21T17:26:17.377Z,12.73
2023-05-21T17:28:45.075Z,13.43
2023-05-21T17:31:12.208Z,13.90
2023-05-21T17:33:39.424Z,12.73
2023-05-21T17:36:06.772Z,12.37
2023-05-21T17:38:33.941Z,13.20
2023-05-21T17:41:00.868Z,13.80
2023-05-21T17:43:27.952Z,13.20
2023-05-21T17:45:55.124Z,13.83
2023-05-21T17:48:22.160Z,13.43
2023-05-21T17:50:49.266Z,14.20
2023-05-21T17:53:16.742Z,12.87
2023-05-21T17:55:44.265Z,13.07
2023-05-21T17:58:11.191Z,13.73
2023-05-21T18:00:38.430Z,13.40
2023-05-21T18:03:05.782Z,13.43
2023-05-21T18:05:32.760Z,12.20
2023-05-21T18:08:01.417Z,13.10
2023-05-21T18:10:28.699Z,14.20
2023-05-21T18:12:56.445Z,13.27
2023-05-21T18:15:23.672Z,13.57
2023-05-21T18:17:50.703Z,13.10
2023-05-21T18:20:18.767Z,13.00
2023-05-21T18:22:46.358Z,14.67
2023-05-21T18:25:13.359Z,14.77
2023-05-21T18:27:40.429Z,15.67
2023-05-21T18:30:08.542Z,15.63
2023-05-21T18:32:38.961Z,14.73
2023-05-21T18:35:11.414Z,15.70
2023-05-21T18:37:41.586Z,15.40
2023-05-21T18:40:09.237Z,15.33
2023-05-21T18:42:36.678Z,18.00
2023-05-21T18:45:10.654Z,15.60
2023-05-21T18:47:39.221Z,15.10
2023-05-21T18:50:09.606Z,15.10
2023-05-21T18:52:36.540Z,14.57
2023-05-21T18:55:03.648Z,14.90
2023-05-21T18:57:31.685Z,16.50
2023-05-21T19:00:00.111Z,15.40
2023-05-21T19:02:28.333Z,15.30
2023-05-21T19:04:55.634Z,16.00
2023-05-21T19:07:22.542Z,14.77
2023-05-21T19:09:50.658Z,15.00
2023-05-21T19:12:17.564Z,14.63
2023-05-21T19:14:45.080Z,14.43
2023-05-21T19:17:13.631Z,14.40
2023-05-21T19:19:41.193Z,14.90
2023-05-21T19:22:08.246Z,14.70
2023-05-21T19:24:35.182Z,15.00
2023-05-21T19:27:02.302Z,14.40
2023-05-21T19:29:29.235Z,14.10
2023-05-21T19:31:58.369Z,14.70
2023-05-21T19:34:26.940Z,14.80
2023-05-21T19:36:54.168Z,15.27
2023-05-21T19:39:21.790Z,14.83
2023-05-21T19:41:48.852Z,14.87
2023-05-21T19:44:16.630Z,14.93
2023-05-21T19:46:43.504Z,15.70
2023-05-21T19:49:15.923Z,15.90
2023-05-21T19:51:43.489Z,17.00
2023-05-21T19:54:10.708Z,15.80
2023-05-21T19:56:37.579Z,16.80
2023-05-21T19:59:04.698Z,16.20
2023-05-21T20:01:35.659Z,16.10
2023-05-21T20:04:02.652Z,16.67
2023-05-21T20:06:32.467Z,15.73
2023-05-21T20:08:59.464Z,15.77
2023-05-21T20:11:26.495Z,15.97
2023-05-21T20:13:54.431Z,16.40
2023-05-21T20:16:21.553Z,15.40
2023-05-21T20:18:49.200Z,15.90
2023-05-21T20:21:20.211Z,16.87
2023-05-21T20:23:47.757Z,15.87
2023-05-21T20:26:15.820Z,15.77
2023-05-21T20:28:43.536Z,15.63
2023-05-21T20:31:11.291Z,16.60
2023-05-21T20:33:40.968Z,16.03
2023-05-21T20:36:08.148Z,15.77
2023-05-21T20:38:37.197Z,16.03
2023-05-21T20:41:05.672Z,16.23
2023-05-21T20:43:33.032Z,14.97
2023-05-21T20:46:00.696Z,15.33
2023-05-21T20:48:30.043Z,17.20
2023-05-21T20:50:58.011Z,16.87
2023-05-21T20:53:26.034Z,15.50
2023-05-21T20:55:54.915Z,15.60
2023-05-21T20:58:24.012Z,16.70
2023-05-21T21:00:51.238Z,17.50
2023-05-21T21:03:18.869Z,16.80
2023-05-21T21:05:46.524Z,15.53
2023-05-21T21:08:16.084Z,15.57
2023-05-21T21:10:46.798Z,18.07
2023-05-21T21:13:14.345Z,17.90
2023-05-21T21:15:42.745Z,18.80
2023-05-21T21:18:12.378Z,18.10
2023-05-21T21:20:41.632Z,17.87
2023-05-21T21:23:08.934Z,19.07
2023-05-21T21:25:36.254Z,17.20
2023-05-21T21:28:03.395Z,17.07
2023-05-21T21:30:31.152Z,14.70
2023-05-21T21:32:58.331Z,14.77
2023-05-21T21:35:25.662Z,13.30
2023-05-21T21:37:53.085Z,14.63
2023-05-21T21:40:20.075Z,14.47
2023-05-21T21:42:47.186Z,14.90
2023-05-21T21:45:14.217Z,14.93
2023-05-21T21:47:41.435Z,14.60
2023-05-21T21:50:08.833Z,14.03
2023-05-21T21:52:40.213Z,12.70
2023-05-21T21:55:12.471Z,12.97
2023-05-21T21:57:39.890Z,12.23
2023-05-21T22:00:16.031Z,13.60
2023-05-21T22:02:44.134Z,13.17
2023-05-21T22:05:14.722Z,15.60
2023-05-21T22:07:48.568Z,13.60
2023-05-21T22:10:16.641Z,14.50
2023-05-21T22:12:44.701Z,13.47
2023-05-21T22:15:24.319Z,13.93
2023-05-21T22:17:52.055Z,13.73
2023-05-21T22:20:19.371Z,14.90
2023-05-21T22:22:47.083Z,15.03
2023-05-21T22:25:14.197Z,14.37
2023-05-21T22:27:42.549Z,15.40
2023-05-21T22:30:10.105Z,17.10
2023-05-21T22:32:37.652Z,15.27
2023-05-21T22:35:05.185Z,15.27
2023-05-21T22:37:32.244Z,16.57
2023-05-21T22:40:00.017Z,16.60
2023-05-21T22:42:26.991Z,18.07
2023-05-21T22:44:53.886Z,16.53
2023-05-21T22:47:23.858Z,18.20
2023-05-21T22:49:53.505Z,17.90
2023-05-21T22:52:24.374Z,18.20
2023-05-21T22:54:52.748Z,18.00
2023-05-21T22:57:19.846Z,19.23
2023-05-21T22:59:46.823Z,19.30
2023-05-21T23:02:13.913Z,18.73
2023-05-21T23:04:44.360Z,19.70
2023-05-21T23:07:12.254Z,19.17
2023-05-21T23:09:39.562Z,20.67
2023-05-21T23:12:07.076Z,18.83
2023-05-21T23:14:34.095Z,19.13
2023-05-21T23:17:04.530Z,19.67
2023-05-21T23:19:32.927Z,19.87
2023-05-21T23:22:00.543Z,19.23
2023-05-21T23:24:29.354Z,20.40
2023-05-21T23:27:02.966Z,19.93
2023-05-21T23:29:30.825Z,19.87
2023-05-21T23:31:58.389Z,18.90
2023-05-21T23:34:26.158Z,18.20
2023-05-21T23:36:53.470Z,20.30
2023-05-21T23:39:21.168Z,19.23
2023-05-21T23:41:48.531Z,18.63
2023-05-21T23:44:15.806Z,20.37
2023-05-21T23:46:46.256Z,19.20
2023-05-21T23:49:13.302Z,18.80
2023-05-21T23:51:40.454Z,18.80
2023-05-21T23:54:08.284Z,18.60
2023-05-21T23:56:35.626Z,19.20
2023-05-21T23:59:02.697Z,19.87
